Tri-State/Milton J. Ferguson Field
KHTS : now visible

Airfield :











YOU CAN JOIN US ON...

 
LOGIN :

Register | Disclaimer

   EN    FR    IT 

 









Legend :    VFR   Marginal VFR   IFR   Intensive IFR   Very Intensive IFR
Visi :
Ceiling :
>= 8 km
>= 3000ft
5 to 8 km
1000 to 3000 ft
1500m to 5 km
500 to 1000 ft
800 to 1500m
200 to 500 ft
< 800m
< 200 ft
Symbols :   Thunderstorms  Fog  Heavy snow  Heavy precipitations  Wind > 20 kt







- Airport Elevation : 828 ft
- IATA code : HTS


KHTS - Tri-State/Milton J. Ferguson Field

CURRENT METAR :
  • 260651Z 21003KT 10SM CLR 20/18 A3007 RMK AO2 SLP175 T02000183

EXPIRED METARs :
  • 260551Z 00000KT 10SM CLR 21/19 A3007 RMK AO2 SLP175 T02060189 10283 20206 56003
  • 260451Z 00000KT 10SM CLR 21/19 A3008 RMK AO2 SLP176 T02110189 403170189

TAF KHTS
Valid from the 26 at 06:00 until the 27 at 06:00 UTC


260537Z 2606/2706 00000KT P6SM FEW070
FM261500 25006KT P6SM VCSH BKN040
FM261700 26006KT P6SM BKN045
FM262200 26010KT 3SM TSRA BKN030CB
FM270000 27007KT P6SM BKN050
KZID FIR / North America



MET'MAP, your aeronautical weather chart ! - Copyright ORBIFLY December 2007 - Disclaimer

ORBIFLY MET'MAP TEAM :

Programming & Development : Alexandra Zaïnal
Concept & Development : Baudouin d'Aumeries
Co-Development & Prog : Marc-Olivier Méhu
Technical & hardware support : Manuel Goepfert

Contact : metmap@orbifly.com




SOURCES & CREDITS :

   NOAA       Earth
Advisory